createdAt,value
2023-08-17T00:02:14.286Z,100114.23
2023-08-17T00:04:41.693Z,100111.55
2023-08-17T00:07:09.145Z,100111.48
2023-08-17T00:09:36.642Z,100107.88
2023-08-17T00:12:04.997Z,100110.90
2023-08-17T00:14:33.644Z,100111.47
2023-08-17T00:17:01.355Z,100112.80
2023-08-17T00:19:28.741Z,100111.54
2023-08-17T00:21:56.708Z,100110.48
2023-08-17T00:24:24.168Z,100112.10
2023-08-17T00:26:51.562Z,100114.59
2023-08-17T00:29:19.037Z,100114.13
2023-08-17T00:31:46.489Z,100117.52
2023-08-17T00:34:14.244Z,100119.38
2023-08-17T00:36:41.694Z,100120.60
2023-08-17T00:39:09.109Z,100122.27
2023-08-17T00:41:36.527Z,100122.20
2023-08-17T00:44:04.167Z,100122.42
2023-08-17T00:46:31.747Z,100121.95
2023-08-17T00:48:59.622Z,100119.23
2023-08-17T00:51:27.936Z,100118.09
2023-08-17T00:53:57.457Z,100120.27
2023-08-17T00:56:25.047Z,100119.08
2023-08-17T00:58:52.504Z,100119.84
2023-08-17T01:01:21.184Z,100118.13
2023-08-17T01:03:48.650Z,100119.60
2023-08-17T01:06:16.073Z,100117.29
2023-08-17T01:08:44.202Z,100116.06
2023-08-17T01:11:38.723Z,100116.50
2023-08-17T01:14:11.072Z,100118.98
2023-08-17T01:16:41.380Z,100121.33
2023-08-17T01:19:10.946Z,100126.48
2023-08-17T01:21:44.239Z,100129.39
2023-08-17T01:24:13.427Z,100127.59
2023-08-17T01:26:40.887Z,100128.04
2023-08-17T01:29:08.665Z,100127.63
2023-08-17T01:31:44.641Z,100126.80
2023-08-17T01:34:14.549Z,100125.96
2023-08-17T01:36:45.115Z,100125.09
2023-08-17T01:39:12.619Z,100127.59
2023-08-17T01:41:40.011Z,100123.58
2023-08-17T01:44:07.520Z,100123.95
2023-08-17T01:46:35.096Z,100119.73
2023-08-17T01:49:02.539Z,100121.27
2023-08-17T01:51:31.533Z,100122.61
2023-08-17T01:53:58.975Z,100122.27
2023-08-17T01:56:27.291Z,100122.60
2023-08-17T01:58:54.721Z,100122.86
2023-08-17T02:01:23.611Z,100123.39
2023-08-17T02:03:51.023Z,100124.86
2023-08-17T02:06:18.436Z,100126.83
2023-08-17T02:08:46.729Z,100131.52
2023-08-17T02:11:14.260Z,100134.39
2023-08-17T02:13:41.663Z,100132.30
2023-08-17T02:16:09.116Z,100129.36
2023-08-17T02:18:36.641Z,100129.80
2023-08-17T02:21:04.245Z,100132.90
2023-08-17T02:23:31.640Z,100135.40
2023-08-17T02:25:59.209Z,100141.80
2023-08-17T02:28:26.619Z,100142.86
2023-08-17T02:30:57.931Z,100143.17
2023-08-17T02:33:27.752Z,100144.40
2023-08-17T02:35:55.222Z,100144.69
2023-08-17T02:38:22.679Z,100141.45
2023-08-17T02:40:51.209Z,100146.05
2023-08-17T02:43:18.698Z,100140.85
2023-08-17T02:45:46.081Z,100140.11
2023-08-17T02:48:13.602Z,100142.73
2023-08-17T02:50:42.155Z,100146.04
2023-08-17T02:53:09.914Z,100144.41
2023-08-17T02:55:37.804Z,100146.73
2023-08-17T02:58:05.218Z,100143.98
2023-08-17T03:00:32.615Z,100143.52
2023-08-17T03:03:00.172Z,100146.91
2023-08-17T03:05:27.597Z,100144.98
2023-08-17T03:07:56.013Z,100147.46
2023-08-17T03:10:23.962Z,100151.17
2023-08-17T03:12:52.332Z,100148.52
2023-08-17T03:15:19.815Z,100146.03
2023-08-17T03:17:47.475Z,100147.83
2023-08-17T03:20:15.000Z,100148.84
2023-08-17T03:22:42.452Z,100149.34
2023-08-17T03:25:09.975Z,100149.85
2023-08-17T03:27:37.830Z,100153.46
2023-08-17T03:30:06.674Z,100150.13
2023-08-17T03:32:34.135Z,100150.29
2023-08-17T03:35:01.542Z,100151.69
2023-08-17T03:37:29.271Z,100150.97
2023-08-17T03:39:56.809Z,100151.63
2023-08-17T03:42:24.245Z,100156.71
2023-08-17T03:44:52.474Z,100153.09
2023-08-17T03:47:20.338Z,100152.55
2023-08-17T03:49:48.369Z,100153.95
2023-08-17T03:52:16.159Z,100154.55
2023-08-17T03:54:43.650Z,100153.80
2023-08-17T03:57:11.154Z,100150.92
2023-08-17T03:59:38.921Z,100147.09
2023-08-17T04:02:06.350Z,100145.81
2023-08-17T04:04:33.805Z,100145.00
2023-08-17T04:07:01.386Z,100145.49
2023-08-17T04:09:28.878Z,100147.79
2023-08-17T04:11:58.585Z,100148.79
2023-08-17T04:14:26.646Z,100148.23
2023-08-17T04:16:54.866Z,100145.95
2023-08-17T04:19:22.254Z,100149.70
2023-08-17T04:21:49.666Z,100145.80
2023-08-17T04:24:17.071Z,100151.45
2023-08-17T04:26:44.451Z,100154.27
2023-08-17T04:29:11.923Z,100154.94
2023-08-17T04:31:39.677Z,100153.48
2023-08-17T04:34:07.143Z,100156.52
2023-08-17T04:36:34.608Z,100156.30
2023-08-17T04:39:02.051Z,100158.25
2023-08-17T04:41:29.492Z,100159.48
2023-08-17T04:43:56.900Z,100158.69
2023-08-17T04:46:24.455Z,100156.12
2023-08-17T04:48:51.912Z,100159.73
2023-08-17T04:51:19.334Z,100161.61
2023-08-17T04:53:46.825Z,100162.77
2023-08-17T04:56:14.244Z,100162.64
2023-08-17T04:58:41.846Z,100163.89
2023-08-17T05:01:11.574Z,100163.58
2023-08-17T05:03:39.257Z,100164.77
2023-08-17T05:06:06.837Z,100163.69
2023-08-17T05:08:34.464Z,100167.78
2023-08-17T05:11:02.040Z,100167.05
2023-08-17T05:13:30.025Z,100163.73
2023-08-17T05:16:00.555Z,100163.98
2023-08-17T05:18:28.603Z,100162.73
2023-08-17T05:20:56.091Z,100161.66
2023-08-17T05:23:23.632Z,100164.38
2023-08-17T05:25:51.475Z,100165.73
2023-08-17T05:28:18.975Z,100167.28
2023-08-17T05:30:46.576Z,100167.29
2023-08-17T05:33:14.667Z,100165.30
2023-08-17T05:35:43.448Z,100160.66
2023-08-17T05:38:11.089Z,100161.75
2023-08-17T05:40:38.549Z,100160.92
2023-08-17T05:43:06.171Z,100158.71
2023-08-17T05:45:38.061Z,100158.10
2023-08-17T05:48:07.884Z,100155.91
2023-08-17T05:50:35.964Z,100156.81
2023-08-17T05:53:03.478Z,100160.38
2023-08-17T05:55:30.884Z,100157.39
2023-08-17T05:57:58.285Z,100156.11
2023-08-17T06:00:25.941Z,100158.11
2023-08-17T06:02:53.665Z,100162.27
2023-08-17T06:05:26.547Z,100164.79
2023-08-17T06:07:53.946Z,100163.92
2023-08-17T06:10:21.799Z,100163.36
2023-08-17T06:12:49.198Z,100161.48
2023-08-17T06:15:16.716Z,100161.89
2023-08-17T06:17:44.229Z,100163.21
2023-08-17T06:20:13.300Z,100163.23
2023-08-17T06:22:40.821Z,100162.96
2023-08-17T06:25:09.896Z,100163.06
2023-08-17T06:27:37.450Z,100162.31
2023-08-17T06:30:05.283Z,100160.99
2023-08-17T06:32:32.747Z,100156.34
2023-08-17T06:35:00.219Z,100159.18
2023-08-17T06:37:27.838Z,100159.60
2023-08-17T06:39:55.635Z,100158.79
2023-08-17T06:42:23.192Z,100163.98
2023-08-17T06:44:50.677Z,100159.57
2023-08-17T06:47:18.113Z,100158.15
2023-08-17T06:49:45.500Z,100159.24
2023-08-17T06:52:12.965Z,100158.02
2023-08-17T06:54:41.115Z,100157.03
2023-08-17T06:57:08.539Z,100154.45
2023-08-17T06:59:36.184Z,100148.77
2023-08-17T07:02:03.762Z,100148.27
2023-08-17T07:04:32.391Z,100151.30
2023-08-17T07:07:00.024Z,100151.23
2023-08-17T07:09:29.224Z,100146.98
2023-08-17T07:11:56.681Z,100146.84
2023-08-17T07:14:24.333Z,100143.54
2023-08-17T07:16:51.760Z,100144.15
2023-08-17T07:21:47.120Z,100140.94
2023-08-17T07:24:15.698Z,100133.59
2023-08-17T07:26:43.286Z,100135.95
2023-08-17T07:29:10.710Z,100137.17
2023-08-17T07:31:44.161Z,100133.53
2023-08-17T07:34:11.989Z,100135.80
2023-08-17T07:36:39.512Z,100140.33
2023-08-17T07:39:07.336Z,100139.52
2023-08-17T07:41:34.719Z,100139.62
2023-08-17T07:44:02.128Z,100139.71
2023-08-17T07:46:29.605Z,100143.30
2023-08-17T07:48:57.085Z,100143.48
2023-08-17T07:51:24.590Z,100143.59
2023-08-17T07:53:51.964Z,100137.95
2023-08-17T07:56:19.767Z,100138.09
2023-08-17T07:58:47.211Z,100137.81
2023-08-17T08:01:14.746Z,100141.13
2023-08-17T08:03:42.153Z,100138.74
2023-08-17T08:06:09.736Z,100139.38
2023-08-17T08:08:37.329Z,100139.36
2023-08-17T08:11:05.704Z,100136.67
2023-08-17T08:13:33.128Z,100135.53
2023-08-17T08:16:00.529Z,100134.89
2023-08-17T08:18:27.981Z,100131.40
2023-08-17T08:20:55.467Z,100129.20
2023-08-17T08:23:22.943Z,100133.95
2023-08-17T08:25:50.461Z,100136.84
2023-08-17T08:28:17.947Z,100132.77
2023-08-17T08:30:45.446Z,100134.08
2023-08-17T08:33:12.927Z,100134.23
2023-08-17T08:35:40.407Z,100134.92
2023-08-17T08:38:07.840Z,100134.24
2023-08-17T08:40:35.259Z,100132.95
2023-08-17T08:43:02.674Z,100130.95
2023-08-17T08:45:30.234Z,100132.75
2023-08-17T08:47:57.916Z,100129.73
2023-08-17T08:50:25.394Z,100131.05
2023-08-17T08:53:04.837Z,100130.38
2023-08-17T08:55:36.961Z,100132.33
2023-08-17T08:58:08.361Z,100126.58
2023-08-17T09:00:35.744Z,100129.86
2023-08-17T09:03:04.240Z,100132.70
2023-08-17T09:05:32.804Z,100128.58
2023-08-17T09:08:00.575Z,100130.35
2023-08-17T09:10:29.354Z,100125.65
2023-08-17T09:12:58.625Z,100125.02
2023-08-17T09:15:26.141Z,100121.84
2023-08-17T09:17:53.559Z,100122.08
2023-08-17T09:20:48.279Z,100121.90
2023-08-17T09:23:23.187Z,100121.08
2023-08-17T09:25:53.179Z,100121.83
2023-08-17T09:28:21.756Z,100118.96
2023-08-17T09:31:04.898Z,100119.53
2023-08-17T09:33:32.647Z,100115.88
2023-08-17T09:36:00.725Z,100116.80
2023-08-17T09:38:28.702Z,100117.91
2023-08-17T09:40:56.386Z,100113.48
2023-08-17T09:43:23.892Z,100117.44
2023-08-17T09:45:51.480Z,100123.63
2023-08-17T09:48:19.070Z,100120.52
2023-08-17T09:50:47.734Z,100114.91
2023-08-17T09:53:15.857Z,100113.77
2023-08-17T09:55:44.441Z,100112.39
2023-08-17T09:58:18.250Z,100112.17
2023-08-17T10:00:51.672Z,100107.20
2023-08-17T10:03:20.478Z,100104.02
2023-08-17T10:06:01.185Z,100100.70
2023-08-17T10:08:29.661Z,100096.38
2023-08-17T10:10:57.166Z,100100.20
2023-08-17T10:13:39.045Z,100099.54
2023-08-17T10:16:31.453Z,100099.00
2023-08-17T10:19:15.454Z,100095.52
2023-08-17T10:21:55.476Z,100092.48
2023-08-17T10:24:23.070Z,100091.39
2023-08-17T10:26:54.785Z,100091.98
2023-08-17T10:29:24.625Z,100090.29
2023-08-17T10:31:52.515Z,100088.59
2023-08-17T10:34:20.134Z,100087.21
2023-08-17T10:36:47.572Z,100081.71
2023-08-17T10:39:29.725Z,100080.13
2023-08-17T10:41:58.575Z,100079.03
2023-08-17T10:44:38.368Z,100085.44
2023-08-17T10:47:25.647Z,100078.56
2023-08-17T10:50:00.790Z,100077.92
2023-08-17T10:52:32.973Z,100079.45
2023-08-17T10:55:06.474Z,100076.95
2023-08-17T10:57:34.990Z,100078.02
2023-08-17T11:00:20.723Z,100079.47
2023-08-17T11:03:02.930Z,100077.48
2023-08-17T11:05:57.004Z,100074.86
2023-08-17T11:08:30.862Z,100075.91
2023-08-17T11:11:00.056Z,100069.60
2023-08-17T11:13:43.361Z,100066.19
2023-08-17T11:16:12.263Z,100064.44
2023-08-17T11:18:42.683Z,100062.94
2023-08-17T11:21:11.384Z,100064.77
2023-08-17T11:23:41.368Z,100061.40
2023-08-17T11:26:08.920Z,100062.20
2023-08-17T11:31:12.883Z,100061.40
2023-08-17T11:33:41.197Z,100060.05
2023-08-17T11:36:09.681Z,100060.71
2023-08-17T11:38:43.633Z,100059.13
2023-08-17T11:41:18.525Z,100058.19
2023-08-17T11:43:46.920Z,100049.88
2023-08-17T11:46:14.615Z,100049.54
2023-08-17T11:48:42.276Z,100047.16
2023-08-17T11:51:09.806Z,100042.85
2023-08-17T11:53:37.807Z,100041.83
2023-08-17T11:56:10.636Z,100041.36
2023-08-17T11:58:46.733Z,100040.38
2023-08-17T12:01:14.584Z,100034.66
2023-08-17T12:03:43.128Z,100029.85
2023-08-17T12:06:11.465Z,100034.46
2023-08-17T12:08:38.914Z,100032.25
2023-08-17T12:11:06.399Z,100034.05
2023-08-17T12:13:37.133Z,100030.67
2023-08-17T12:16:05.173Z,100028.55
2023-08-17T12:18:36.310Z,100030.36
2023-08-17T12:21:04.796Z,100034.94
2023-08-17T12:23:34.049Z,100033.41
2023-08-17T12:26:04.654Z,100028.51
2023-08-17T12:28:32.094Z,100026.73
2023-08-17T12:31:01.201Z,100024.47
2023-08-17T12:33:28.716Z,100028.30
2023-08-17T12:35:56.551Z,100029.06
2023-08-17T12:38:25.348Z,100027.85
2023-08-17T12:40:54.345Z,100031.64
2023-08-17T12:43:24.586Z,100027.80
2023-08-17T12:45:52.623Z,100026.16
2023-08-17T12:48:20.141Z,100024.59
2023-08-17T12:50:47.823Z,100020.88
2023-08-17T12:53:15.275Z,100018.52
2023-08-17T12:55:42.988Z,100021.67
2023-08-17T12:58:11.215Z,100021.44
2023-08-17T13:00:38.640Z,100013.45
2023-08-17T13:03:06.144Z,100010.44
2023-08-17T13:05:34.218Z,100008.70
2023-08-17T13:08:01.649Z,100010.43
2023-08-17T13:10:29.706Z,100010.05
2023-08-17T13:13:00.437Z,100006.23
2023-08-17T13:26:59.111Z,100003.00
2023-08-17T13:29:26.624Z,100001.52
2023-08-17T13:31:54.257Z,99999.16
2023-08-17T13:34:21.774Z,99995.51
2023-08-17T13:36:49.278Z,99997.65
2023-08-17T13:39:18.982Z,99999.10
2023-08-17T13:41:46.564Z,99998.06
2023-08-17T13:44:14.020Z,99999.20
2023-08-17T13:46:41.516Z,99997.36
2023-08-17T13:49:09.068Z,99995.45
2023-08-17T13:51:36.519Z,99996.38
2023-08-17T13:54:04.780Z,99998.20
2023-08-17T13:56:32.307Z,99999.39
2023-08-17T13:58:59.756Z,100002.25
2023-08-17T14:01:27.633Z,100003.05
2023-08-17T14:03:55.138Z,100000.60
2023-08-17T14:06:22.793Z,99998.42
2023-08-17T14:08:50.258Z,99996.23
2023-08-17T14:11:17.713Z,99997.36
2023-08-17T14:13:45.164Z,99995.42
2023-08-17T14:16:13.102Z,99987.91
2023-08-17T14:18:40.580Z,99994.15
2023-08-17T14:21:08.034Z,99994.06
2023-08-17T14:23:35.448Z,99991.38
2023-08-17T14:26:03.441Z,99990.11
2023-08-17T14:28:30.973Z,99991.42
2023-08-17T14:30:58.346Z,99989.16
2023-08-17T14:33:25.834Z,99989.95
2023-08-17T14:35:53.271Z,99987.17
2023-08-17T14:38:20.874Z,99986.31
2023-08-17T14:40:49.076Z,99984.38
2023-08-17T14:43:16.778Z,99984.39
2023-08-17T14:45:44.379Z,99984.04
2023-08-17T14:48:11.832Z,99986.71
2023-08-17T14:50:39.623Z,99985.48
2023-08-17T14:53:08.171Z,99982.52
2023-08-17T14:55:35.751Z,99983.65
2023-08-17T14:58:04.059Z,99982.30
2023-08-17T15:00:33.925Z,99981.69
2023-08-17T15:03:02.199Z,99975.57
2023-08-17T15:05:29.961Z,99976.94
2023-08-17T15:07:57.439Z,99973.19
2023-08-17T15:10:25.282Z,99974.62
2023-08-17T15:12:52.771Z,99978.19
2023-08-17T15:15:20.985Z,99977.98
2023-08-17T15:17:48.987Z,99975.73
2023-08-17T15:20:16.438Z,99976.46
2023-08-17T15:22:44.005Z,99976.48
2023-08-17T15:25:11.435Z,99975.86
2023-08-17T15:27:38.915Z,99980.13
2023-08-17T15:30:08.280Z,99980.00
2023-08-17T15:32:35.712Z,99975.72
2023-08-17T15:35:04.066Z,99979.34
2023-08-17T15:37:31.770Z,99981.38
2023-08-17T15:39:59.468Z,99977.83
2023-08-17T15:42:27.367Z,99981.57
2023-08-17T15:44:54.874Z,99984.25
2023-08-17T15:47:22.308Z,99985.14
2023-08-17T15:49:49.762Z,99983.30
2023-08-17T15:52:17.303Z,99985.18
2023-08-17T15:54:44.690Z,99988.75
2023-08-17T15:57:12.116Z,99989.37
2023-08-17T15:59:42.547Z,99989.46
2023-08-17T16:02:10.036Z,99987.77
2023-08-17T16:04:37.528Z,99990.14
2023-08-17T16:07:05.058Z,99992.45
2023-08-17T16:09:32.490Z,99994.67
2023-08-17T16:11:59.945Z,99995.60
2023-08-17T16:14:27.520Z,99994.70
2023-08-17T16:16:57.118Z,99992.73
2023-08-17T16:19:25.345Z,99997.25
2023-08-17T16:21:52.878Z,99996.80
2023-08-17T16:24:26.466Z,99998.01
2023-08-17T16:26:54.895Z,100002.25
2023-08-17T16:29:22.321Z,100001.36
2023-08-17T16:34:34.212Z,100010.84
2023-08-17T16:37:01.824Z,100013.00
2023-08-17T16:39:29.338Z,100013.73
2023-08-17T16:41:57.874Z,100014.92
2023-08-17T16:44:27.814Z,100013.95
2023-08-17T16:46:55.913Z,100014.75
2023-08-17T16:49:29.663Z,100016.45
2023-08-17T16:51:59.276Z,100016.42
2023-08-17T16:54:26.796Z,100017.88
2023-08-17T16:56:54.550Z,100021.80
2023-08-17T16:59:22.377Z,100019.27
2023-08-17T17:01:50.041Z,100021.75
2023-08-17T17:04:18.849Z,100022.02
2023-08-17T17:06:46.645Z,100022.14
2023-08-17T17:09:14.106Z,100024.75
2023-08-17T17:11:41.795Z,100026.15
2023-08-17T17:14:09.282Z,100027.44
2023-08-17T17:16:36.733Z,100029.59
2023-08-17T17:19:04.336Z,100031.89
2023-08-17T17:21:31.855Z,100031.56
2023-08-17T17:23:59.234Z,100028.84
2023-08-17T17:26:26.632Z,100028.60
2023-08-17T17:28:54.068Z,100033.73
2023-08-17T17:31:21.605Z,100036.79
2023-08-17T17:33:49.103Z,100041.34
2023-08-17T17:36:16.538Z,100040.41
2023-08-17T17:38:43.941Z,100041.67
2023-08-17T17:41:11.392Z,100043.58
2023-08-17T17:43:38.866Z,100047.09
2023-08-17T17:46:06.292Z,100051.05
2023-08-17T17:48:34.188Z,100053.20
2023-08-17T17:51:01.605Z,100056.75
2023-08-17T17:53:30.160Z,100061.34
2023-08-17T17:55:57.636Z,100062.74
2023-08-17T17:58:25.141Z,100063.25
2023-08-17T18:00:54.790Z,100066.66
2023-08-17T18:03:22.495Z,100067.15
2023-08-17T18:05:50.013Z,100066.55
2023-08-17T18:08:17.615Z,100063.74
2023-08-17T18:10:45.286Z,100065.89
2023-08-17T18:13:12.701Z,100067.75
2023-08-17T18:15:40.349Z,100070.05
2023-08-17T18:18:08.534Z,100070.23
2023-08-17T18:20:36.112Z,100074.32
2023-08-17T18:23:03.724Z,100075.48
2023-08-17T18:25:31.270Z,100071.71
2023-08-17T18:27:58.849Z,100076.48
2023-08-17T18:30:26.278Z,100074.55
2023-08-17T18:32:53.749Z,100073.80
2023-08-17T18:35:22.243Z,100071.27
2023-08-17T18:37:50.005Z,100074.39
2023-08-17T18:40:20.943Z,100077.65
2023-08-17T18:42:49.862Z,100076.78
2023-08-17T18:45:20.635Z,100076.98
2023-08-17T18:47:48.136Z,100076.08
2023-08-17T18:50:16.108Z,100076.79
2023-08-17T18:52:43.637Z,100073.56
2023-08-17T18:55:14.050Z,100071.61
2023-08-17T18:57:42.027Z,100072.92
2023-08-17T19:00:12.341Z,100074.94
2023-08-17T19:02:40.910Z,100072.30
2023-08-17T19:05:09.196Z,100073.42
2023-08-17T19:07:36.766Z,100072.04
2023-08-17T19:10:04.483Z,100069.79
2023-08-17T19:12:31.983Z,100069.05
2023-08-17T19:14:59.404Z,100072.40
2023-08-17T19:17:27.767Z,100074.17
2023-08-17T19:19:55.548Z,100069.30
2023-08-17T19:22:23.059Z,100075.46
2023-08-17T19:24:50.491Z,100077.12
2023-08-17T19:27:17.891Z,100076.15
2023-08-17T19:29:45.360Z,100077.17
2023-08-17T19:32:12.810Z,100076.70
2023-08-17T19:34:40.236Z,100074.88
2023-08-17T19:37:07.744Z,100073.27
2023-08-17T19:39:35.159Z,100073.65
2023-08-17T19:42:03.831Z,100075.61
2023-08-17T19:44:31.236Z,100077.45
2023-08-17T19:46:58.683Z,100079.92
2023-08-17T19:49:26.270Z,100083.11
2023-08-17T19:51:53.729Z,100080.71
2023-08-17T19:54:21.723Z,100079.16
2023-08-17T19:56:49.303Z,100081.41
2023-08-17T19:59:16.721Z,100078.20
2023-08-17T20:01:45.636Z,100071.63
2023-08-17T20:04:13.071Z,100070.77
2023-08-17T20:06:40.863Z,100070.20
2023-08-17T20:09:08.290Z,100071.95
2023-08-17T20:11:35.791Z,100069.29
2023-08-17T20:14:03.281Z,100069.84
2023-08-17T20:16:30.873Z,100070.76
2023-08-17T20:18:58.314Z,100069.38
2023-08-17T20:21:25.814Z,100065.10
2023-08-17T20:23:53.311Z,100068.04
2023-08-17T20:26:21.171Z,100070.52
2023-08-17T20:28:48.638Z,100075.60
2023-08-17T20:31:16.210Z,100077.67
2023-08-17T20:33:44.121Z,100077.15
2023-08-17T21:02:13.924Z,100085.98
2023-08-17T21:04:41.360Z,100092.67
2023-08-17T21:07:08.727Z,100094.04
2023-08-17T21:09:36.091Z,100094.27
2023-08-17T21:12:03.919Z,100098.59
2023-08-17T21:14:31.357Z,100101.58
2023-08-17T21:16:59.347Z,100102.52
2023-08-17T21:19:26.763Z,100105.58
2023-08-17T21:21:54.180Z,100099.95
2023-08-17T21:24:21.676Z,100102.36
2023-08-17T21:26:49.110Z,100104.86
2023-08-17T21:29:16.530Z,100103.06
2023-08-17T21:31:46.500Z,100104.25
2023-08-17T21:34:16.611Z,100103.29
2023-08-17T21:36:43.989Z,100101.09
2023-08-17T21:39:12.438Z,100100.85
2023-08-17T21:41:39.874Z,100102.18
2023-08-17T21:44:07.452Z,100104.59
2023-08-17T21:46:34.860Z,100103.17
2023-08-17T21:49:02.304Z,100100.23
2023-08-17T21:51:29.729Z,100100.77
2023-08-17T21:53:59.468Z,100099.62
2023-08-17T21:56:26.841Z,100095.77
2023-08-17T21:58:54.223Z,100096.02
2023-08-17T22:01:21.654Z,100095.80
2023-08-17T22:03:49.150Z,100096.58
2023-08-17T22:06:16.669Z,100094.84
2023-08-17T22:08:44.088Z,100095.23
2023-08-17T22:11:11.519Z,100094.52
2023-08-17T22:13:39.163Z,100095.45
2023-08-17T22:16:06.675Z,100094.90
2023-08-17T22:18:34.061Z,100097.55
2023-08-17T22:21:05.286Z,100094.48
2023-08-17T22:23:32.850Z,100092.73
2023-08-17T22:26:00.308Z,100093.30
2023-08-17T22:28:28.536Z,100097.64
2023-08-17T22:31:09.244Z,100096.89
2023-08-17T22:33:36.878Z,100099.33
2023-08-17T22:36:04.486Z,100099.29
2023-08-17T22:38:31.872Z,100100.10
2023-08-17T22:40:59.301Z,100102.01
2023-08-17T22:43:26.690Z,100102.20
2023-08-17T22:45:54.161Z,100102.30
2023-08-17T22:48:21.603Z,100101.89
2023-08-17T22:50:49.084Z,100104.30
2023-08-17T22:53:16.536Z,100106.59
2023-08-17T22:55:43.954Z,100108.83
2023-08-17T22:58:11.333Z,100109.67
2023-08-17T23:00:38.731Z,100115.09
2023-08-17T23:03:06.230Z,100114.40
2023-08-17T23:05:34.591Z,100114.50
2023-08-17T23:08:02.522Z,100114.14
2023-08-17T23:10:29.988Z,100115.73
2023-08-17T23:12:57.454Z,100120.55
2023-08-17T23:15:24.966Z,100121.91
2023-08-17T23:17:52.519Z,100120.25
2023-08-17T23:20:20.162Z,100118.39
2023-08-17T23:22:47.803Z,100119.27
2023-08-17T23:25:15.305Z,100122.21
2023-08-17T23:27:42.764Z,100120.77
2023-08-17T23:30:11.482Z,100120.60
2023-08-17T23:32:38.992Z,100123.38
2023-08-17T23:35:07.352Z,100120.56
2023-08-17T23:37:34.857Z,100118.79
2023-08-17T23:40:02.306Z,100119.34
2023-08-17T23:42:29.799Z,100118.87
2023-08-17T23:44:57.538Z,100123.14
2023-08-17T23:47:24.993Z,100124.16
2023-08-17T23:49:52.444Z,100124.15
2023-08-17T23:52:19.885Z,100124.59
2023-08-17T23:54:47.670Z,100125.67
2023-08-17T23:57:15.092Z,100128.01
2023-08-17T23:59:42.475Z,100123.92
